createdAt,value
2023-01-04T00:01:01.181Z,33.33
2023-01-04T00:03:28.057Z,29.67
2023-01-04T00:05:57.493Z,29.00
2023-01-04T00:08:24.302Z,27.33
2023-01-04T00:10:51.061Z,30.33
2023-01-04T00:13:19.013Z,30.67
2023-01-04T00:15:45.812Z,30.67
2023-01-04T00:18:14.297Z,26.67
2023-01-04T00:20:41.114Z,30.00
2023-01-04T00:23:07.822Z,27.67
2023-01-04T00:25:34.583Z,28.67
2023-01-04T00:28:01.302Z,29.67
2023-01-04T00:30:27.978Z,25.33
2023-01-04T00:32:54.671Z,30.33
2023-01-04T00:35:44.158Z,30.67
2023-01-04T00:38:08.045Z,30.33
2023-01-04T00:40:34.772Z,31.00
2023-01-04T00:43:01.609Z,31.67
2023-01-04T00:45:28.278Z,28.67
2023-01-04T00:47:54.953Z,30.00
2023-01-04T00:50:21.730Z,29.33
2023-01-04T00:52:49.954Z,29.33
2023-01-04T00:55:16.742Z,31.00
2023-01-04T00:57:43.460Z,35.33
2023-01-04T01:00:10.997Z,30.33
2023-01-04T01:02:37.771Z,31.67
2023-01-04T01:05:05.010Z,34.00
2023-01-04T01:07:31.651Z,30.67
2023-01-04T01:09:58.325Z,31.33
2023-01-04T01:12:24.985Z,24.00
2023-01-04T01:14:57.199Z,30.33
2023-01-04T01:17:26.942Z,33.33
2023-01-04T01:19:53.640Z,33.00
2023-01-04T01:22:20.350Z,33.67
2023-01-04T01:24:47.052Z,31.67
2023-01-04T01:27:13.797Z,32.33
2023-01-04T01:29:40.590Z,30.33
2023-01-04T01:32:07.300Z,34.33
2023-01-04T01:34:34.024Z,34.67
2023-01-04T01:37:00.644Z,34.67
2023-01-04T01:39:27.540Z,39.00
2023-01-04T01:41:54.241Z,37.33
2023-01-04T01:44:42.595Z,38.33
2023-01-04T01:47:37.160Z,38.00
2023-01-04T01:50:05.940Z,42.33
2023-01-04T01:52:37.336Z,36.33
2023-01-04T01:55:09.303Z,39.00
2023-01-04T01:57:38.804Z,40.67
2023-01-04T02:00:13.366Z,41.67
2023-01-04T02:03:15.440Z,40.67
2023-01-04T02:05:44.045Z,38.00
2023-01-04T02:08:12.855Z,40.67
2023-01-04T02:10:39.540Z,45.33
2023-01-04T02:13:10.251Z,45.33
2023-01-04T02:16:00.655Z,46.67
2023-01-04T02:18:33.610Z,45.00
2023-01-04T02:21:13.572Z,42.67
2023-01-04T02:23:55.421Z,44.00
2023-01-04T02:26:43.627Z,41.00
2023-01-04T02:29:34.973Z,45.67
2023-01-04T02:32:06.427Z,46.67
2023-01-04T02:34:41.403Z,45.33
2023-01-04T02:37:42.880Z,45.67
2023-01-04T02:40:16.144Z,41.33
2023-01-04T02:43:23.662Z,45.00
2023-01-04T02:45:59.824Z,42.67
2023-01-04T02:48:54.322Z,42.33
2023-01-04T02:51:35.994Z,46.33
2023-01-04T02:54:10.612Z,47.00
2023-01-04T02:57:06.159Z,47.33
2023-01-04T03:00:00.916Z,41.00
2023-01-04T03:03:18.490Z,39.67
2023-01-04T03:06:17.473Z,45.00
2023-01-04T03:09:05.708Z,46.33
2023-01-04T03:12:11.287Z,45.00
2023-01-04T03:14:53.820Z,44.33
2023-01-04T03:17:24.118Z,46.00
2023-01-04T03:19:56.515Z,44.00
2023-01-04T03:22:52.719Z,44.33
2023-01-04T03:25:44.276Z,46.67
2023-01-04T03:28:33.126Z,45.67
2023-01-04T03:31:27.045Z,44.00
2023-01-04T03:34:12.632Z,47.00
2023-01-04T03:36:54.167Z,48.00
2023-01-04T03:39:57.917Z,46.00
2023-01-04T03:42:55.564Z,46.33
2023-01-04T03:45:51.175Z,39.67
2023-01-04T03:48:34.605Z,46.50
2023-01-04T03:51:10.380Z,44.67
2023-01-04T03:54:07.916Z,40.25
2023-01-04T03:56:37.675Z,47.00
2023-01-04T03:59:05.064Z,46.75
2023-01-04T04:01:32.050Z,44.75
2023-01-04T04:04:17.767Z,45.75
2023-01-04T04:07:02.940Z,41.00
2023-01-04T04:09:29.633Z,39.75
2023-01-04T04:11:56.318Z,47.25
2023-01-04T04:14:22.990Z,44.00
2023-01-04T04:16:49.964Z,46.25
2023-01-04T04:19:16.712Z,45.75
2023-01-04T04:21:43.371Z,46.25
2023-01-04T04:24:24.774Z,44.75
2023-01-04T04:26:54.480Z,44.00
2023-01-04T04:29:21.998Z,43.00
2023-01-04T04:31:48.821Z,44.33
2023-01-04T04:34:15.857Z,44.33
2023-01-04T04:36:42.543Z,44.33
2023-01-04T04:39:09.423Z,45.50
2023-01-04T04:41:38.911Z,44.00
2023-01-04T04:44:10.441Z,45.75
2023-01-04T04:46:37.606Z,43.33
2023-01-04T04:49:04.975Z,45.33
2023-01-04T04:51:31.927Z,43.00
2023-01-04T04:53:58.665Z,43.67
2023-01-04T04:56:25.371Z,42.67
2023-01-04T04:58:52.235Z,45.00
2023-01-04T05:01:19.602Z,42.33
2023-01-04T05:03:46.562Z,42.00
2023-01-04T05:06:13.701Z,45.33
2023-01-04T05:08:40.718Z,40.67
2023-01-04T05:11:09.203Z,44.33
2023-01-04T05:13:36.246Z,38.33
2023-01-04T05:16:04.684Z,43.67
2023-01-04T05:18:31.512Z,38.33
2023-01-04T05:20:58.449Z,38.33
2023-01-04T05:23:25.485Z,43.00
2023-01-04T05:25:56.741Z,44.33
2023-01-04T05:28:23.403Z,43.33
2023-01-04T05:30:51.515Z,43.67
2023-01-04T05:33:20.301Z,43.67
2023-01-04T05:35:48.063Z,39.67
2023-01-04T05:38:15.373Z,44.33
2023-01-04T05:40:42.847Z,46.67
2023-01-04T05:43:09.942Z,43.33
2023-01-04T05:45:37.088Z,47.00
2023-01-04T05:48:03.915Z,47.75
2023-01-04T05:50:30.585Z,38.67
2023-01-04T05:53:04.912Z,41.00
2023-01-04T05:55:31.653Z,46.33
2023-01-04T05:57:58.557Z,49.00
2023-01-04T06:00:25.263Z,41.75
2023-01-04T06:02:55.646Z,41.00
2023-01-04T06:05:23.657Z,42.75
2023-01-04T06:07:50.912Z,42.00
2023-01-04T06:10:18.031Z,40.50
2023-01-04T06:12:46.552Z,48.00
2023-01-04T06:15:13.785Z,42.25
2023-01-04T06:17:40.604Z,42.00
2023-01-04T06:20:12.446Z,45.75
2023-01-04T06:22:40.684Z,42.00
2023-01-04T06:25:09.410Z,49.75
2023-01-04T06:27:36.230Z,46.25
2023-01-04T06:30:03.666Z,42.50
2023-01-04T06:32:30.319Z,43.75
2023-01-04T06:34:57.110Z,43.00
2023-01-04T06:37:23.887Z,44.50
2023-01-04T06:39:50.660Z,52.75
2023-01-04T06:42:35.956Z,48.25
2023-01-04T06:45:02.886Z,44.50
2023-01-04T06:47:29.632Z,44.50
2023-01-04T06:49:56.289Z,45.00
2023-01-04T06:52:23.001Z,46.50
2023-01-04T06:54:49.695Z,44.50
2023-01-04T06:57:16.447Z,50.75
2023-01-04T06:59:43.205Z,54.00
2023-01-04T07:02:15.020Z,44.50
2023-01-04T07:04:42.994Z,47.50
2023-01-04T07:07:09.803Z,44.50
2023-01-04T07:09:36.575Z,44.75
2023-01-04T07:12:03.464Z,44.00
2023-01-04T07:14:30.112Z,45.00
2023-01-04T07:16:56.904Z,45.00
2023-01-04T07:19:23.550Z,45.00
2023-01-04T07:21:50.279Z,46.75
2023-01-04T07:24:16.992Z,45.25
2023-01-04T07:26:43.696Z,47.75
2023-01-04T07:29:17.305Z,43.25
2023-01-04T07:31:47.589Z,47.75
2023-01-04T07:34:18.214Z,45.25
2023-01-04T07:36:46.262Z,47.00
2023-01-04T07:39:13.464Z,48.75
2023-01-04T07:41:40.998Z,48.00
2023-01-04T07:44:09.842Z,45.75
2023-01-04T07:46:36.840Z,45.00
2023-01-04T07:49:03.916Z,46.75
2023-01-04T07:51:32.195Z,46.00
2023-01-04T07:53:59.656Z,45.50
2023-01-04T07:56:26.357Z,46.00
2023-01-04T07:58:57.141Z,45.50
2023-01-04T08:01:25.312Z,45.75
2023-01-04T08:03:52.954Z,45.25
2023-01-04T08:06:21.461Z,46.50
2023-01-04T08:08:48.356Z,45.50
2023-01-04T08:11:17.437Z,42.25
2023-01-04T08:13:44.237Z,47.00
2023-01-04T08:16:21.231Z,45.50
2023-01-04T08:18:48.980Z,44.25
2023-01-04T08:21:15.772Z,43.25
2023-01-04T08:23:42.540Z,42.50
2023-01-04T08:26:12.339Z,43.50
2023-01-04T08:28:39.110Z,44.00
2023-01-04T08:31:12.050Z,43.25
2023-01-04T08:33:39.612Z,43.25
2023-01-04T08:36:27.999Z,40.75
2023-01-04T08:39:00.544Z,43.00
2023-01-04T08:44:16.892Z,44.00
2023-01-04T08:46:43.680Z,43.75
2023-01-04T08:49:10.541Z,43.75
2023-01-04T08:51:37.262Z,44.00
2023-01-04T08:54:04.115Z,42.00
2023-01-04T08:56:30.742Z,40.33
2023-01-04T08:58:57.421Z,39.00
2023-01-04T09:01:24.272Z,41.00
2023-01-04T09:03:50.973Z,42.00
2023-01-04T09:06:17.969Z,39.00
2023-01-04T09:08:44.662Z,39.67
2023-01-04T09:11:16.818Z,38.67
2023-01-04T09:13:44.155Z,38.67
2023-01-04T09:16:14.146Z,35.67
2023-01-04T09:18:41.183Z,37.67
2023-01-04T09:21:10.289Z,34.67
2023-01-04T09:23:37.882Z,37.00
2023-01-04T09:26:09.936Z,38.00
2023-01-04T09:28:37.225Z,37.33
2023-01-04T09:31:18.432Z,36.00
2023-01-04T09:34:13.353Z,34.33
2023-01-04T09:36:32.114Z,36.67
2023-01-04T09:38:58.781Z,35.00
2023-01-04T09:41:29.387Z,34.33
2023-01-04T09:44:01.085Z,30.33
2023-01-04T09:46:42.644Z,35.00
2023-01-04T09:49:14.942Z,35.00
2023-01-04T09:51:48.515Z,32.33
2023-01-04T09:54:20.782Z,32.00
2023-01-04T09:56:56.040Z,25.67
2023-01-04T09:59:31.676Z,34.00
2023-01-04T10:02:13.258Z,32.67
2023-01-04T10:04:46.149Z,36.00
2023-01-04T10:07:25.045Z,30.67
2023-01-04T10:09:51.976Z,35.00
2023-01-04T10:12:33.983Z,31.33
2023-01-04T10:15:22.639Z,31.33
2023-01-04T10:21:32.821Z,31.00
2023-01-04T10:24:38.238Z,29.00
2023-01-04T10:27:25.296Z,32.00
2023-01-04T10:30:07.312Z,30.33
2023-01-04T10:32:45.541Z,32.00
2023-01-04T10:35:24.563Z,27.33
2023-01-04T10:38:10.421Z,27.33
2023-01-04T10:40:40.021Z,28.00
2023-01-04T10:43:17.088Z,28.33
2023-01-04T10:45:51.889Z,30.33
2023-01-04T10:48:35.972Z,26.00
2023-01-04T10:51:10.190Z,28.00
2023-01-04T10:53:53.343Z,26.67
2023-01-04T10:56:40.359Z,26.00
2023-01-04T10:59:25.715Z,23.33
2023-01-04T11:02:02.349Z,22.33
2023-01-04T11:04:37.409Z,21.33
2023-01-04T11:07:16.713Z,21.67
2023-01-04T11:09:55.834Z,37.67
2023-01-04T11:12:23.507Z,48.50
2023-01-04T11:14:51.596Z,54.00
2023-01-04T11:17:20.810Z,39.00
2023-01-04T11:19:48.032Z,38.67
2023-01-04T11:22:21.446Z,48.00
2023-01-04T11:25:33.153Z,45.50
2023-01-04T11:27:49.711Z,37.33
2023-01-04T11:30:21.589Z,37.33
2023-01-04T11:33:09.090Z,35.00
2023-01-04T11:35:58.932Z,29.67
2023-01-04T11:38:30.618Z,33.00
2023-01-04T11:41:06.049Z,35.67
2023-01-04T11:43:39.601Z,35.00
2023-01-04T11:46:17.020Z,32.33
2023-01-04T11:48:45.929Z,33.33
2023-01-04T11:51:27.466Z,32.33
2023-01-04T11:54:20.252Z,32.67
2023-01-04T11:57:20.608Z,34.67
2023-01-04T12:00:14.668Z,35.33
2023-01-04T12:03:00.751Z,32.00
2023-01-04T12:05:32.185Z,28.67
2023-01-04T12:07:59.556Z,31.00
2023-01-04T12:10:28.232Z,29.33
2023-01-04T12:12:56.376Z,29.00
2023-01-04T12:15:55.284Z,33.00
2023-01-04T12:18:37.362Z,33.33
2023-01-04T12:21:04.281Z,30.33
2023-01-04T12:23:32.675Z,28.67
2023-01-04T12:26:00.012Z,28.00
2023-01-04T12:28:35.312Z,26.67
2023-01-04T12:31:21.263Z,25.33
2023-01-04T12:33:55.263Z,26.33
2023-01-04T12:36:43.037Z,20.67
2023-01-04T12:39:13.307Z,23.67
2023-01-04T12:41:39.908Z,21.00
2023-01-04T12:44:38.771Z,27.67
2023-01-04T12:47:39.214Z,21.67
2023-01-04T12:50:19.624Z,23.00
2023-01-04T12:55:44.905Z,24.00
2023-01-04T12:58:58.021Z,22.67
2023-01-04T13:01:28.195Z,26.33
2023-01-04T13:04:05.760Z,24.00
2023-01-04T13:06:40.547Z,21.67
2023-01-04T13:09:23.694Z,24.00
2023-01-04T13:12:08.327Z,24.67
2023-01-04T13:14:49.885Z,25.00
2023-01-04T13:17:25.517Z,24.33
2023-01-04T13:19:52.268Z,22.67
2023-01-04T13:22:28.580Z,29.33
2023-01-04T13:24:57.720Z,22.67
2023-01-04T13:27:25.275Z,21.67
2023-01-04T13:29:52.742Z,27.67
2023-01-04T13:32:26.555Z,24.33
2023-01-04T13:35:25.522Z,21.67
2023-01-04T13:37:52.612Z,21.67
2023-01-04T13:40:24.167Z,24.33
2023-01-04T13:42:59.721Z,22.00
2023-01-04T13:45:47.543Z,23.33
2023-01-04T13:48:19.419Z,22.00
2023-01-04T13:51:02.949Z,21.00
2023-01-04T13:53:30.750Z,24.00
2023-01-04T13:56:02.422Z,24.33
2023-01-04T13:58:31.404Z,24.67
2023-01-04T14:01:03.140Z,18.67
2023-01-04T14:03:37.471Z,18.33
2023-01-04T14:06:32.637Z,18.00
2023-01-04T14:09:11.303Z,20.00
2023-01-04T14:12:07.675Z,23.33
2023-01-04T14:15:01.001Z,23.00
2023-01-04T14:17:31.769Z,19.33
2023-01-04T14:20:06.039Z,19.33
2023-01-04T14:22:32.716Z,22.00
2023-01-04T14:25:09.797Z,24.00
2023-01-04T14:27:45.148Z,20.67
2023-01-04T14:30:17.716Z,20.67
2023-01-04T14:33:42.914Z,18.67
2023-01-04T14:36:09.766Z,19.00
2023-01-04T14:38:42.123Z,19.33
2023-01-04T14:41:30.427Z,17.00
2023-01-04T14:43:59.880Z,22.33
2023-01-04T14:46:29.123Z,19.67
2023-01-04T14:48:56.375Z,18.33
2023-01-04T14:51:29.357Z,23.00
2023-01-04T14:53:56.058Z,21.00
2023-01-04T14:56:22.716Z,21.33
2023-01-04T14:58:49.441Z,21.67
2023-01-04T15:01:16.315Z,19.67
2023-01-04T15:03:43.119Z,19.00
2023-01-04T15:06:10.592Z,22.67
2023-01-04T15:08:37.235Z,20.33
2023-01-04T15:11:03.934Z,23.67
2023-01-04T15:13:38.762Z,23.00
2023-01-04T15:16:07.612Z,19.00
2023-01-04T15:18:34.461Z,20.67
2023-01-04T15:21:02.778Z,23.33
2023-01-04T15:23:29.537Z,24.33
2023-01-04T15:25:56.443Z,25.00
2023-01-04T15:28:25.940Z,25.00
2023-01-04T15:30:52.661Z,24.00
2023-01-04T15:33:19.587Z,24.33
2023-01-04T15:35:46.994Z,27.00
2023-01-04T15:38:18.386Z,30.00
2023-01-04T15:40:45.470Z,29.33
2023-01-04T15:43:12.146Z,25.67
2023-01-04T15:45:39.664Z,25.00
2023-01-04T15:48:08.299Z,26.67
2023-01-04T15:50:37.899Z,28.00
2023-01-04T15:53:06.339Z,29.67
2023-01-04T15:55:36.758Z,29.33
2023-01-04T15:58:07.428Z,26.00
2023-01-04T16:00:34.728Z,26.33
2023-01-04T16:03:01.491Z,27.00
2023-01-04T16:05:28.200Z,27.67
2023-01-04T16:07:54.874Z,30.33
2023-01-04T16:10:21.622Z,25.00
2023-01-04T16:12:54.749Z,28.00
2023-01-04T16:15:24.130Z,29.00
2023-01-04T16:17:51.036Z,26.00
2023-01-04T16:20:18.977Z,29.00
2023-01-04T16:22:45.953Z,31.33
2023-01-04T16:25:13.266Z,33.67
2023-01-04T16:27:40.531Z,32.33
2023-01-04T16:30:11.082Z,32.67
2023-01-04T16:32:41.564Z,33.67
2023-01-04T16:35:08.948Z,35.00
2023-01-04T16:37:35.688Z,25.33
2023-01-04T16:40:07.336Z,29.33
2023-01-04T16:42:35.820Z,30.67
2023-01-04T16:45:02.494Z,34.00
2023-01-04T16:47:29.174Z,35.67
2023-01-04T16:49:55.924Z,33.33
2023-01-04T16:52:26.711Z,33.00
2023-01-04T16:54:53.511Z,37.33
2023-01-04T16:57:20.266Z,33.67
2023-01-04T16:59:47.699Z,36.00
2023-01-04T17:02:14.796Z,35.33
2023-01-04T17:04:41.657Z,36.67
2023-01-04T17:07:08.331Z,38.00
2023-01-04T17:09:35.002Z,38.00
2023-01-04T17:12:45.113Z,35.67
2023-01-04T17:15:08.054Z,38.67
2023-01-04T17:17:37.752Z,39.67
2023-01-04T17:20:06.379Z,38.00
2023-01-04T17:22:34.884Z,36.00
2023-01-04T17:25:01.945Z,38.33
2023-01-04T17:27:28.667Z,32.67
2023-01-04T17:29:55.339Z,39.00
2023-01-04T17:32:22.024Z,34.00
2023-01-04T17:34:51.911Z,31.67
2023-01-04T17:37:18.657Z,32.67
2023-01-04T17:39:45.383Z,34.33
2023-01-04T17:42:12.074Z,34.33
2023-01-04T17:44:39.421Z,40.00
2023-01-04T17:47:06.204Z,39.67
2023-01-04T17:49:32.894Z,40.33
2023-01-04T17:51:59.914Z,38.00
2023-01-04T17:54:27.080Z,40.33
2023-01-04T17:56:54.102Z,41.33
2023-01-04T17:59:20.787Z,41.33
2023-01-04T18:01:47.457Z,42.67
2023-01-04T18:04:14.510Z,43.00
2023-01-04T18:06:41.173Z,43.67
2023-01-04T18:09:09.296Z,44.00
2023-01-04T18:11:36.649Z,46.50
2023-01-04T18:14:06.399Z,48.75
2023-01-04T18:16:56.550Z,46.25
2023-01-04T18:19:30.004Z,39.25
2023-01-04T18:21:57.772Z,41.75
2023-01-04T18:24:35.972Z,48.50
2023-01-04T18:27:22.773Z,42.50
2023-01-04T18:29:51.844Z,42.75
2023-01-04T18:32:18.883Z,46.75
2023-01-04T18:34:45.609Z,48.50
2023-01-04T18:37:12.340Z,45.25
2023-01-04T18:39:39.002Z,52.75
2023-01-04T18:42:05.789Z,52.00
2023-01-04T18:44:34.554Z,52.25
2023-01-04T18:47:02.746Z,54.00
2023-01-04T18:49:30.954Z,54.75
2023-01-04T18:51:57.629Z,55.75
2023-01-04T18:54:24.530Z,49.00
2023-01-04T18:56:56.992Z,56.75
2023-01-04T18:59:30.693Z,48.25
2023-01-04T19:02:01.224Z,51.25
2023-01-04T19:04:30.498Z,57.75
2023-01-04T19:06:57.303Z,52.00
2023-01-04T19:09:24.175Z,49.75
2023-01-04T19:11:51.227Z,50.75
2023-01-04T19:14:18.112Z,60.25
2023-01-04T19:16:45.228Z,58.25
2023-01-04T19:19:11.954Z,50.75
2023-01-04T19:21:38.722Z,59.00
2023-01-04T19:24:05.556Z,57.75
2023-01-04T19:26:32.278Z,60.50
2023-01-04T19:28:59.049Z,57.00
2023-01-04T19:31:25.809Z,62.00
2023-01-04T19:33:52.516Z,63.25
2023-01-04T19:36:19.733Z,67.25
2023-01-04T19:38:46.560Z,67.25
2023-01-04T19:41:21.019Z,69.75
2023-01-04T19:43:48.040Z,70.50
2023-01-04T19:46:15.618Z,66.75
2023-01-04T19:48:43.122Z,66.00
2023-01-04T19:51:15.266Z,62.25
2023-01-04T19:53:44.219Z,63.75
2023-01-04T19:56:12.052Z,68.00
2023-01-04T19:58:38.812Z,70.25
2023-01-04T20:01:06.712Z,77.75
2023-01-04T20:03:33.798Z,69.00
2023-01-04T20:06:04.981Z,72.50
2023-01-04T20:08:32.693Z,83.50
2023-01-04T20:11:01.354Z,74.25
2023-01-04T20:13:28.985Z,84.75
2023-01-04T20:15:56.267Z,82.00
2023-01-04T20:18:26.621Z,85.50
2023-01-04T20:20:53.573Z,83.00
2023-01-04T20:23:21.573Z,81.00
2023-01-04T20:25:51.154Z,86.00
2023-01-04T20:28:19.948Z,80.00
2023-01-04T20:30:47.602Z,89.00
2023-01-04T20:33:14.984Z,97.25
2023-01-04T20:35:43.790Z,99.75
2023-01-04T20:38:11.779Z,94.50
2023-01-04T20:40:39.786Z,93.50
2023-01-04T20:43:25.393Z,89.50
2023-01-04T20:45:52.161Z,98.50
2023-01-04T20:48:18.954Z,94.75
2023-01-04T20:50:45.665Z,99.00
2023-01-04T20:53:13.549Z,98.25
2023-01-04T20:55:42.523Z,96.50
2023-01-04T20:58:13.803Z,93.00
2023-01-04T21:00:41.491Z,100.75
2023-01-04T21:03:10.986Z,101.25
2023-01-04T21:05:43.254Z,99.25
2023-01-04T21:08:11.232Z,96.50
2023-01-04T21:10:41.932Z,101.75
2023-01-04T21:13:10.582Z,100.00
2023-01-04T21:15:39.547Z,105.00
2023-01-04T21:18:07.431Z,113.50
2023-01-04T21:20:34.157Z,116.75
2023-01-04T21:23:00.874Z,131.25
2023-01-04T21:25:27.546Z,121.50
2023-01-04T21:27:54.415Z,113.25
2023-01-04T21:30:21.219Z,132.25
2023-01-04T21:32:47.881Z,116.75
2023-01-04T21:35:14.623Z,126.00
2023-01-04T21:37:41.337Z,124.75
2023-01-04T21:40:08.831Z,128.00
2023-01-04T21:42:35.716Z,130.25
2023-01-04T21:45:02.350Z,132.00
2023-01-04T21:47:32.922Z,131.75
2023-01-04T21:49:59.715Z,128.00
2023-01-04T21:52:26.428Z,124.75
2023-01-04T21:54:53.267Z,112.25
2023-01-04T21:57:19.910Z,127.25
2023-01-04T21:59:46.838Z,129.00
2023-01-04T22:02:17.655Z,132.00
2023-01-04T22:04:44.876Z,132.25
2023-01-04T22:07:11.901Z,114.75
2023-01-04T22:09:38.749Z,134.50
2023-01-04T22:12:06.066Z,114.75
2023-01-04T22:14:33.643Z,124.25
2023-01-04T22:17:00.717Z,137.50
2023-01-04T22:19:27.479Z,140.00
2023-01-04T22:21:54.361Z,136.00
2023-01-04T22:24:21.146Z,138.00
2023-01-04T22:26:49.307Z,136.25
2023-01-04T22:29:16.478Z,138.00
2023-01-04T22:31:43.231Z,130.00
2023-01-04T22:34:09.924Z,119.50
2023-01-04T22:36:36.636Z,115.00
2023-01-04T22:39:03.665Z,114.75
2023-01-04T22:41:30.516Z,120.25
2023-01-04T22:43:59.544Z,124.75
2023-01-04T22:46:28.120Z,119.00
2023-01-04T22:48:55.321Z,126.75
2023-01-04T22:51:23.697Z,118.50
2023-01-04T22:53:54.880Z,111.25
2023-01-04T22:56:22.752Z,135.00
2023-01-04T22:58:54.192Z,129.25
2023-01-04T23:01:24.242Z,120.25
2023-01-04T23:03:51.987Z,123.75
2023-01-04T23:06:19.891Z,109.25
2023-01-04T23:08:46.576Z,119.75
2023-01-04T23:11:18.616Z,102.25
2023-01-04T23:13:45.984Z,110.75
2023-01-04T23:16:16.534Z,116.75
2023-01-04T23:18:43.960Z,94.50
2023-01-04T23:21:11.727Z,103.50
2023-01-04T23:23:38.673Z,102.25
2023-01-04T23:26:08.231Z,97.50
2023-01-04T23:28:37.994Z,113.00
2023-01-04T23:31:07.334Z,108.50
2023-01-04T23:33:36.777Z,97.25
2023-01-04T23:36:18.806Z,96.25
2023-01-04T23:38:50.895Z,96.25
2023-01-04T23:41:17.718Z,106.75
2023-01-04T23:43:44.413Z,106.00
2023-01-04T23:46:17.915Z,91.00
2023-01-04T23:48:44.944Z,88.50
2023-01-04T23:51:14.966Z,88.50
2023-01-04T23:53:41.823Z,87.25
2023-01-04T23:56:15.081Z,94.25
2023-01-04T23:58:42.076Z,89.50
